createdAt,value
2019-03-19T00:01:36.601Z,18.57
2019-03-19T00:04:04.030Z,25.30
2019-03-19T00:06:31.498Z,21.03
2019-03-19T00:08:58.918Z,22.37
2019-03-19T00:11:26.341Z,24.07
2019-03-19T00:13:53.803Z,20.43
2019-03-19T00:16:21.201Z,24.47
2019-03-19T00:18:48.668Z,21.23
2019-03-19T00:21:16.144Z,20.07
2019-03-19T00:23:43.614Z,17.80
2019-03-19T00:26:11.066Z,19.87
2019-03-19T00:28:39.144Z,19.27
2019-03-19T00:31:07.186Z,19.33
2019-03-19T00:33:34.599Z,18.90
2019-03-19T00:36:02.036Z,18.93
2019-03-19T00:38:29.559Z,22.57
2019-03-19T00:40:57.025Z,21.40
2019-03-19T00:43:24.490Z,21.70
2019-03-19T00:45:51.939Z,19.20
2019-03-19T00:48:19.413Z,17.87
2019-03-19T00:50:46.839Z,26.63
2019-03-19T00:53:14.318Z,22.10
2019-03-19T00:55:42.068Z,19.50
2019-03-19T00:58:09.506Z,18.47
2019-03-19T01:00:36.949Z,20.33
2019-03-19T01:03:04.452Z,18.83
2019-03-19T01:05:32.004Z,24.70
2019-03-19T01:07:59.479Z,21.07
2019-03-19T01:10:26.986Z,20.77
2019-03-19T01:12:54.432Z,27.70
2019-03-19T01:15:22.570Z,20.30
2019-03-19T01:17:50.852Z,22.10
2019-03-19T01:20:18.603Z,19.93
2019-03-19T01:22:46.741Z,20.17
2019-03-19T01:25:14.220Z,19.47
2019-03-19T01:27:41.776Z,19.80
2019-03-19T01:30:09.754Z,22.67
2019-03-19T01:32:37.202Z,21.43
2019-03-19T01:35:04.972Z,20.70
2019-03-19T01:37:32.402Z,23.47
2019-03-19T01:40:00.298Z,21.83
2019-03-19T01:42:27.698Z,28.83
2019-03-19T01:44:55.155Z,21.40
2019-03-19T01:47:22.636Z,19.00
2019-03-19T01:49:50.089Z,22.37
2019-03-19T01:52:17.556Z,16.83
2019-03-19T01:54:45.046Z,21.03
2019-03-19T01:57:12.479Z,18.93
2019-03-19T01:59:39.964Z,20.73
2019-03-19T02:02:07.466Z,20.93
2019-03-19T02:04:34.923Z,21.20
2019-03-19T02:07:02.394Z,24.10
2019-03-19T02:09:29.928Z,23.97
2019-03-19T02:11:57.370Z,25.87
2019-03-19T02:14:25.287Z,30.00
2019-03-19T02:16:52.715Z,24.20
2019-03-19T02:19:20.576Z,24.10
2019-03-19T02:21:48.231Z,28.40
2019-03-19T02:24:15.817Z,33.60
2019-03-19T02:26:43.323Z,29.00
2019-03-19T02:29:11.021Z,31.60
2019-03-19T02:31:38.504Z,32.47
2019-03-19T02:34:05.989Z,29.07
2019-03-19T02:36:33.446Z,29.20
2019-03-19T02:39:00.904Z,28.93
2019-03-19T02:41:28.332Z,32.03
2019-03-19T02:43:55.763Z,27.50
2019-03-19T02:46:23.476Z,32.40
2019-03-19T02:48:50.934Z,26.40
2019-03-19T02:51:18.359Z,30.63
2019-03-19T02:53:45.809Z,30.33
2019-03-19T02:56:13.293Z,31.30
2019-03-19T02:58:40.718Z,37.67
2019-03-19T03:01:08.191Z,32.47
2019-03-19T03:03:35.754Z,30.00
2019-03-19T03:06:03.216Z,32.30
2019-03-19T03:08:30.681Z,32.67
2019-03-19T03:10:58.112Z,35.73
2019-03-19T03:13:25.595Z,32.40
2019-03-19T03:15:53.051Z,31.60
2019-03-19T03:18:20.517Z,32.83
2019-03-19T03:20:48.012Z,35.23
2019-03-19T03:23:15.825Z,33.57
2019-03-19T03:25:43.288Z,32.83
2019-03-19T03:28:10.703Z,34.63
2019-03-19T03:30:38.149Z,32.83
2019-03-19T03:33:05.603Z,42.70
2019-03-19T03:35:33.068Z,36.07
2019-03-19T03:38:00.571Z,41.20
2019-03-19T03:40:27.953Z,42.13
2019-03-19T03:42:56.183Z,52.37
2019-03-19T03:45:23.648Z,45.10
2019-03-19T03:47:51.096Z,59.13
2019-03-19T03:50:18.576Z,39.77
2019-03-19T03:52:46.016Z,59.50
2019-03-19T03:55:14.281Z,44.47
2019-03-19T03:57:41.807Z,52.00
2019-03-19T04:00:11.483Z,43.27
2019-03-19T04:02:38.907Z,44.57
2019-03-19T04:05:07.203Z,52.37
2019-03-19T04:07:34.628Z,50.53
2019-03-19T04:10:02.219Z,49.33
2019-03-19T04:12:29.665Z,45.73
2019-03-19T04:14:57.128Z,49.97
2019-03-19T04:17:24.620Z,47.93
2019-03-19T04:19:52.093Z,54.63
2019-03-19T04:22:19.579Z,49.37
2019-03-19T04:24:47.063Z,51.43
2019-03-19T04:27:16.221Z,58.73
2019-03-19T04:29:43.853Z,53.63
2019-03-19T04:32:11.335Z,49.60
2019-03-19T04:34:38.851Z,50.10
2019-03-19T04:37:06.311Z,49.37
2019-03-19T04:39:33.791Z,52.40
2019-03-19T04:42:01.267Z,60.10
2019-03-19T04:44:28.729Z,54.00
2019-03-19T04:46:56.141Z,61.67
2019-03-19T04:49:23.668Z,112.30
2019-03-19T04:51:51.134Z,78.07
2019-03-19T04:54:18.637Z,153.37
2019-03-19T04:56:46.083Z,213.67
2019-03-19T04:59:13.530Z,300.17
2019-03-19T05:01:41.007Z,205.77
2019-03-19T05:04:08.479Z,155.23
2019-03-19T05:06:36.018Z,142.33
2019-03-19T05:09:06.023Z,143.03
2019-03-19T05:11:33.486Z,143.93
2019-03-19T05:14:00.923Z,180.13
2019-03-19T05:16:28.398Z,138.03
2019-03-19T05:18:55.860Z,165.70
2019-03-19T05:21:23.278Z,186.73
2019-03-19T05:23:50.726Z,144.87
2019-03-19T05:26:18.237Z,182.40
2019-03-19T05:28:45.668Z,127.67
2019-03-19T05:31:13.161Z,117.00
2019-03-19T05:33:40.575Z,142.83
2019-03-19T05:36:07.998Z,201.30
2019-03-19T05:38:35.886Z,200.87
2019-03-19T05:41:03.304Z,169.90
2019-03-19T05:43:30.717Z,200.57
2019-03-19T05:45:58.155Z,161.10
2019-03-19T05:48:25.572Z,184.93
2019-03-19T05:50:53.005Z,124.00
2019-03-19T05:53:20.429Z,143.07
2019-03-19T05:55:48.054Z,134.70
2019-03-19T05:58:15.471Z,133.17
2019-03-19T06:00:42.931Z,140.13
2019-03-19T06:03:10.389Z,161.07
2019-03-19T06:05:37.833Z,152.10
2019-03-19T06:08:05.293Z,121.17
2019-03-19T06:10:32.747Z,123.83
2019-03-19T06:13:00.182Z,113.60
2019-03-19T06:15:27.950Z,153.27
2019-03-19T06:17:55.407Z,125.57
2019-03-19T06:20:22.851Z,93.63
2019-03-19T06:22:50.267Z,166.23
2019-03-19T06:25:17.742Z,150.90
2019-03-19T06:27:45.187Z,106.03
2019-03-19T06:30:14.140Z,88.37
2019-03-19T06:32:41.690Z,177.10
2019-03-19T06:35:09.700Z,179.70
2019-03-19T06:37:37.120Z,231.23
2019-03-19T06:40:04.600Z,182.73
2019-03-19T06:42:32.034Z,151.17
2019-03-19T06:44:59.438Z,212.60
2019-03-19T06:47:26.885Z,206.33
2019-03-19T06:49:54.302Z,178.23
2019-03-19T06:52:21.706Z,157.97
2019-03-19T06:54:49.170Z,123.77
2019-03-19T06:57:16.605Z,77.70
2019-03-19T06:59:44.133Z,92.67
2019-03-19T07:02:11.553Z,92.90
2019-03-19T07:04:38.998Z,111.90
2019-03-19T07:07:06.453Z,108.70
2019-03-19T07:09:33.902Z,135.13
2019-03-19T07:12:01.845Z,94.63
2019-03-19T07:14:29.215Z,79.87
2019-03-19T07:16:57.079Z,106.20
2019-03-19T07:19:24.551Z,66.50
2019-03-19T07:21:52.015Z,89.83
2019-03-19T07:24:19.455Z,89.17
2019-03-19T07:26:46.881Z,102.63
2019-03-19T07:29:14.302Z,102.47
2019-03-19T07:31:41.751Z,92.00
2019-03-19T07:34:09.162Z,118.20
2019-03-19T07:36:36.588Z,72.27
2019-03-19T07:39:06.927Z,83.90
2019-03-19T07:41:34.336Z,65.20
2019-03-19T07:44:01.775Z,62.80
2019-03-19T07:46:29.485Z,61.90
2019-03-19T07:48:56.927Z,78.27
2019-03-19T07:51:24.367Z,69.60
2019-03-19T07:53:51.847Z,78.10
2019-03-19T07:56:19.262Z,77.20
2019-03-19T07:58:47.004Z,80.60
2019-03-19T08:01:14.436Z,96.13
2019-03-19T08:03:41.908Z,91.60
2019-03-19T08:06:09.304Z,85.40
2019-03-19T08:08:36.694Z,75.63
2019-03-19T08:11:04.114Z,69.70
2019-03-19T08:13:31.574Z,60.53
2019-03-19T08:15:59.006Z,72.20
2019-03-19T08:18:26.424Z,65.10
2019-03-19T08:20:53.937Z,54.57
2019-03-19T08:23:21.354Z,50.17
2019-03-19T08:25:48.798Z,55.30
2019-03-19T08:28:16.240Z,47.07
2019-03-19T08:30:43.706Z,51.57
2019-03-19T08:33:11.136Z,45.83
2019-03-19T08:35:38.646Z,41.27
2019-03-19T08:38:06.047Z,43.60
2019-03-19T08:40:33.466Z,36.97
2019-03-19T08:43:01.184Z,35.47
2019-03-19T08:45:28.632Z,43.17
2019-03-19T08:47:56.048Z,36.57
2019-03-19T08:50:23.494Z,35.30
2019-03-19T08:52:51.159Z,32.73
2019-03-19T08:55:18.760Z,32.13
2019-03-19T08:57:46.608Z,37.30
2019-03-19T09:00:15.914Z,22.15
2019-03-19T09:02:44.049Z,25.97
2019-03-19T09:05:11.456Z,19.45
2019-03-19T09:07:38.909Z,27.00
2019-03-19T09:10:08.709Z,24.63
2019-03-19T09:12:36.121Z,25.05
2019-03-19T09:15:04.212Z,22.27
2019-03-19T09:17:31.622Z,24.95
2019-03-19T09:19:59.072Z,28.95
2019-03-19T09:22:29.841Z,25.32
2019-03-19T09:24:55.710Z,24.12
2019-03-19T09:27:23.170Z,28.10
2019-03-19T09:29:50.595Z,16.15
2019-03-19T09:32:18.524Z,23.67
2019-03-19T09:34:45.957Z,25.57
2019-03-19T09:37:13.391Z,18.52
2019-03-19T09:39:40.834Z,27.07
2019-03-19T09:42:08.234Z,18.62
2019-03-19T09:44:35.750Z,14.68
2019-03-19T09:47:03.254Z,15.30
2019-03-19T09:49:30.964Z,14.43
2019-03-19T09:51:58.370Z,14.65
2019-03-19T09:54:25.786Z,20.40
2019-03-19T09:56:53.286Z,14.53
2019-03-19T09:59:27.032Z,10.93
2019-03-19T10:01:49.886Z,13.20
2019-03-19T10:04:17.323Z,8.10
2019-03-19T10:06:44.736Z,11.40
2019-03-19T10:09:12.185Z,10.35
2019-03-19T10:11:39.584Z,14.18
2019-03-19T10:14:07.033Z,9.73
2019-03-19T10:16:34.477Z,10.80
2019-03-19T10:19:01.889Z,12.18
2019-03-19T10:21:29.320Z,10.80
2019-03-19T10:23:56.739Z,6.40
2019-03-19T10:26:24.161Z,8.60
2019-03-19T10:28:51.582Z,5.72
2019-03-19T10:31:19.063Z,5.45
2019-03-19T10:33:46.504Z,8.98
2019-03-19T10:36:13.976Z,7.28
2019-03-19T10:38:41.390Z,10.63
2019-03-19T10:41:08.863Z,6.70
2019-03-19T10:43:36.302Z,5.65
2019-03-19T10:46:03.730Z,7.87
2019-03-19T10:48:31.149Z,7.53
2019-03-19T10:50:58.651Z,7.95
2019-03-19T10:53:26.138Z,7.75
2019-03-19T10:55:53.538Z,8.70
2019-03-19T10:58:20.976Z,7.42
2019-03-19T11:00:48.526Z,8.15
2019-03-19T11:03:15.935Z,7.62
2019-03-19T11:05:43.348Z,4.92
2019-03-19T11:08:10.799Z,6.25
2019-03-19T11:10:38.220Z,5.42
2019-03-19T11:13:05.649Z,3.50
2019-03-19T11:15:33.074Z,5.78
2019-03-19T11:18:01.436Z,6.53
2019-03-19T11:20:28.840Z,5.50
2019-03-19T11:22:56.239Z,8.20
2019-03-19T11:25:23.871Z,4.65
2019-03-19T11:27:51.352Z,4.92
2019-03-19T11:30:20.167Z,6.25
2019-03-19T11:32:47.625Z,4.37
2019-03-19T11:35:15.431Z,3.62
2019-03-19T11:37:42.865Z,10.20
2019-03-19T11:40:11.110Z,5.72
2019-03-19T11:42:38.842Z,10.03
2019-03-19T11:45:07.060Z,6.15
2019-03-19T11:47:34.447Z,7.47
2019-03-19T11:50:01.900Z,7.62
2019-03-19T11:52:29.323Z,6.08
2019-03-19T11:54:56.754Z,9.80
2019-03-19T11:57:24.170Z,6.10
2019-03-19T11:59:51.575Z,9.55
2019-03-19T12:02:25.868Z,11.88
2019-03-19T12:04:48.321Z,9.00
2019-03-19T12:07:15.721Z,11.97
2019-03-19T12:09:43.163Z,6.22
2019-03-19T12:12:11.699Z,9.40
2019-03-19T12:14:39.253Z,7.75
2019-03-19T12:17:06.700Z,7.33
2019-03-19T12:19:34.160Z,5.40
2019-03-19T12:22:01.547Z,9.33
2019-03-19T12:24:28.962Z,7.17
2019-03-19T12:26:56.682Z,10.93
2019-03-19T12:29:24.312Z,4.47
2019-03-19T12:31:51.742Z,4.22
2019-03-19T12:34:19.146Z,9.35
2019-03-19T12:36:46.587Z,8.03
2019-03-19T12:39:13.992Z,4.20
2019-03-19T12:41:41.433Z,4.80
2019-03-19T12:44:08.962Z,7.85
2019-03-19T12:46:36.748Z,8.20
2019-03-19T12:49:04.415Z,6.58
2019-03-19T12:51:31.833Z,3.65
2019-03-19T12:53:59.346Z,8.50
2019-03-19T12:56:26.845Z,7.75
2019-03-19T12:58:54.388Z,9.08
2019-03-19T13:01:21.986Z,5.92
2019-03-19T13:03:49.528Z,5.03
2019-03-19T13:06:17.470Z,6.78
2019-03-19T13:08:44.970Z,4.97
2019-03-19T13:11:12.868Z,5.70
2019-03-19T13:13:41.056Z,5.72
2019-03-19T13:16:08.634Z,4.72
2019-03-19T13:18:36.073Z,8.13
2019-03-19T13:21:03.626Z,7.28
2019-03-19T13:23:31.072Z,8.05
2019-03-19T13:25:58.505Z,6.03
2019-03-19T13:28:25.992Z,4.80
2019-03-19T13:30:53.448Z,4.50
2019-03-19T13:33:20.909Z,7.08
2019-03-19T13:35:48.384Z,6.17
2019-03-19T13:38:15.821Z,8.70
2019-03-19T13:40:43.253Z,12.30
2019-03-19T13:43:10.808Z,7.53
2019-03-19T13:45:38.218Z,4.90
2019-03-19T13:48:05.645Z,6.00
2019-03-19T13:50:33.899Z,5.62
2019-03-19T13:53:01.462Z,10.72
2019-03-19T13:55:28.876Z,9.40
2019-03-19T13:57:56.317Z,7.75
2019-03-19T14:00:24.200Z,5.60
2019-03-19T14:02:51.671Z,10.88
2019-03-19T14:05:19.129Z,8.78
2019-03-19T14:07:46.663Z,6.45
2019-03-19T14:10:14.170Z,6.62
2019-03-19T14:12:41.656Z,7.60
2019-03-19T14:15:11.182Z,10.43
2019-03-19T14:17:39.065Z,5.65
2019-03-19T14:20:08.548Z,5.10
2019-03-19T14:22:36.027Z,8.18
2019-03-19T14:25:04.352Z,4.08
2019-03-19T14:27:31.833Z,7.00
2019-03-19T14:29:59.720Z,8.10
2019-03-19T14:32:27.360Z,6.12
2019-03-19T14:34:54.756Z,6.65
2019-03-19T14:37:22.290Z,5.35
2019-03-19T14:39:49.764Z,11.40
2019-03-19T14:42:19.500Z,4.30
2019-03-19T14:44:46.818Z,6.83
2019-03-19T14:47:14.255Z,9.15
2019-03-19T14:49:46.569Z,9.53
2019-03-19T14:52:11.247Z,6.40
2019-03-19T14:54:38.686Z,5.87
2019-03-19T14:57:06.266Z,9.65
2019-03-19T14:59:33.717Z,4.83
2019-03-19T15:02:01.237Z,7.97
2019-03-19T15:04:29.008Z,6.53
2019-03-19T15:06:56.450Z,10.45
2019-03-19T15:09:23.997Z,9.28
2019-03-19T15:11:51.501Z,4.42
2019-03-19T15:14:19.273Z,6.30
2019-03-19T15:16:47.044Z,5.78
2019-03-19T15:19:14.723Z,5.17
2019-03-19T15:21:42.183Z,5.95
2019-03-19T15:24:09.673Z,7.35
2019-03-19T15:26:37.206Z,7.55
2019-03-19T15:29:04.973Z,5.30
2019-03-19T15:31:32.431Z,7.05
2019-03-19T15:34:00.544Z,8.25
2019-03-19T15:36:28.023Z,6.85
2019-03-19T15:38:55.471Z,6.37
2019-03-19T15:41:28.243Z,6.08
2019-03-19T15:43:55.954Z,7.90
2019-03-19T15:46:23.393Z,5.67
2019-03-19T15:48:50.870Z,6.70
2019-03-19T15:51:18.367Z,5.60
2019-03-19T15:53:45.814Z,7.17
2019-03-19T15:56:13.265Z,4.83
2019-03-19T15:58:40.714Z,9.85
2019-03-19T16:01:08.550Z,6.30
2019-03-19T16:03:36.038Z,8.75
2019-03-19T16:06:03.565Z,7.35
2019-03-19T16:08:31.030Z,5.92
2019-03-19T16:10:58.545Z,9.23
2019-03-19T16:13:26.052Z,7.33
2019-03-19T16:15:53.571Z,5.20
2019-03-19T16:18:21.034Z,6.67
2019-03-19T16:20:48.473Z,6.53
2019-03-19T16:23:16.003Z,4.75
2019-03-19T16:25:43.433Z,6.00
2019-03-19T16:28:10.928Z,7.40
2019-03-19T16:30:38.454Z,6.22
2019-03-19T16:33:06.099Z,4.78
2019-03-19T16:35:33.565Z,6.42
2019-03-19T16:38:01.145Z,6.60
2019-03-19T16:40:48.057Z,4.47
2019-03-19T16:43:15.543Z,6.92
2019-03-19T16:45:43.043Z,14.00
2019-03-19T16:48:10.574Z,9.78
2019-03-19T16:50:38.091Z,4.15
2019-03-19T16:53:05.494Z,7.22
2019-03-19T16:55:33.003Z,11.80
2019-03-19T16:58:00.992Z,8.08
2019-03-19T17:00:28.511Z,8.20
2019-03-19T17:02:55.955Z,9.80
2019-03-19T17:05:23.456Z,7.08
2019-03-19T17:07:50.932Z,8.50
2019-03-19T17:10:18.498Z,6.97
2019-03-19T17:12:45.932Z,11.55
2019-03-19T17:15:14.315Z,6.03
2019-03-19T17:17:41.761Z,7.47
2019-03-19T17:20:10.379Z,9.73
2019-03-19T17:22:37.847Z,7.67
2019-03-19T17:25:06.555Z,8.88
2019-03-19T17:27:33.978Z,6.70
2019-03-19T17:30:01.438Z,11.85
2019-03-19T17:32:28.941Z,12.35
2019-03-19T17:34:56.436Z,9.10
2019-03-19T17:37:24.244Z,10.43
2019-03-19T17:39:51.808Z,7.37
2019-03-19T17:42:20.177Z,13.83
2019-03-19T17:44:47.612Z,11.23
2019-03-19T17:47:15.127Z,11.57
2019-03-19T17:49:42.664Z,10.93
2019-03-19T17:52:10.451Z,6.80
2019-03-19T17:54:37.896Z,11.43
2019-03-19T17:57:05.482Z,11.03
2019-03-19T17:59:33.524Z,15.13
2019-03-19T18:02:01.064Z,8.50
2019-03-19T18:04:30.051Z,6.27
2019-03-19T18:06:57.533Z,9.37
2019-03-19T18:09:25.371Z,6.10
2019-03-19T18:11:52.872Z,10.83
2019-03-19T18:14:20.695Z,11.57
2019-03-19T18:16:48.193Z,10.93
2019-03-19T18:19:15.721Z,6.93
2019-03-19T18:21:43.197Z,12.50
2019-03-19T18:24:11.350Z,10.23
2019-03-19T18:26:39.208Z,16.33
2019-03-19T18:29:06.677Z,16.70
2019-03-19T18:31:34.926Z,10.63
2019-03-19T18:34:10.212Z,12.87
2019-03-19T18:36:31.935Z,12.87
2019-03-19T18:39:00.362Z,15.80
2019-03-19T18:41:27.885Z,16.53
2019-03-19T18:43:56.094Z,16.13
2019-03-19T18:46:23.656Z,13.50
2019-03-19T18:48:57.321Z,9.73
2019-03-19T18:51:25.187Z,13.40
2019-03-19T18:53:53.025Z,11.80
2019-03-19T18:56:21.523Z,17.20
2019-03-19T18:59:08.527Z,15.87
2019-03-19T19:01:36.576Z,13.63
2019-03-19T19:04:04.854Z,15.33
2019-03-19T19:06:32.539Z,12.67
2019-03-19T19:09:00.451Z,12.23
2019-03-19T19:11:28.485Z,16.57
2019-03-19T19:13:56.771Z,11.03
2019-03-19T19:16:24.973Z,18.17
2019-03-19T19:18:53.257Z,12.20
2019-03-19T19:21:21.130Z,13.53
2019-03-19T19:23:49.000Z,12.33
2019-03-19T19:26:16.554Z,19.77
2019-03-19T19:28:44.872Z,16.23
2019-03-19T19:31:12.722Z,14.33
2019-03-19T19:33:40.187Z,15.63
2019-03-19T19:36:07.700Z,13.90
2019-03-19T19:38:35.939Z,19.20
2019-03-19T19:41:03.413Z,12.50
2019-03-19T19:43:31.274Z,22.00
2019-03-19T19:45:58.846Z,14.03
2019-03-19T19:48:26.734Z,26.10
2019-03-19T19:50:54.352Z,15.60
2019-03-19T19:53:21.758Z,20.50
2019-03-19T19:55:49.232Z,17.83
2019-03-19T19:58:16.787Z,17.73
2019-03-19T20:00:44.356Z,22.03
2019-03-19T20:03:12.835Z,21.77
2019-03-19T20:05:40.839Z,22.80
2019-03-19T20:08:27.759Z,24.40
2019-03-19T20:10:55.335Z,24.53
2019-03-19T20:13:22.775Z,19.13
2019-03-19T20:15:50.723Z,16.00
2019-03-19T20:18:18.202Z,21.67
2019-03-19T20:20:45.730Z,21.23
2019-03-19T20:23:13.514Z,18.80
2019-03-19T20:25:41.092Z,25.20
2019-03-19T20:28:08.617Z,16.97
2019-03-19T20:30:36.350Z,20.57
2019-03-19T20:33:04.090Z,21.00
2019-03-19T20:35:31.584Z,30.27
2019-03-19T20:37:59.103Z,23.53
2019-03-19T20:40:27.036Z,22.03
2019-03-19T20:42:55.298Z,20.77
2019-03-19T20:45:22.834Z,20.30
2019-03-19T20:47:50.436Z,18.83
2019-03-19T20:50:23.588Z,18.50
2019-03-19T20:52:51.077Z,19.27
2019-03-19T20:55:18.939Z,19.60
2019-03-19T20:57:46.445Z,19.43
2019-03-19T21:00:14.770Z,18.53
2019-03-19T21:02:42.276Z,20.70
2019-03-19T21:05:10.061Z,17.20
2019-03-19T21:07:37.534Z,21.83
2019-03-19T21:10:05.843Z,23.63
2019-03-19T21:12:33.292Z,25.50
2019-03-19T21:15:00.783Z,23.70
2019-03-19T21:17:28.286Z,20.70
2019-03-19T21:19:56.112Z,22.40
2019-03-19T21:22:43.058Z,25.23
2019-03-19T21:25:10.647Z,24.73
2019-03-19T21:27:38.165Z,23.07
2019-03-19T21:30:06.038Z,29.40
2019-03-19T21:32:33.634Z,23.13
2019-03-19T21:35:01.151Z,21.40
2019-03-19T21:37:28.925Z,17.07
2019-03-19T21:39:56.619Z,18.77
2019-03-19T21:42:24.148Z,13.33
2019-03-19T21:44:51.615Z,21.30
2019-03-19T21:47:20.215Z,17.67
2019-03-19T21:49:47.669Z,17.17
2019-03-19T21:52:15.170Z,24.50
2019-03-19T21:54:42.658Z,22.40
2019-03-19T21:57:10.205Z,19.23
2019-03-19T21:59:37.651Z,20.93
2019-03-19T22:02:05.245Z,23.53
2019-03-19T22:04:32.720Z,25.70
2019-03-19T22:07:00.235Z,21.67
2019-03-19T22:09:27.685Z,23.97
2019-03-19T22:11:55.204Z,24.17
2019-03-19T22:14:22.709Z,24.07
2019-03-19T22:16:50.205Z,19.37
2019-03-19T22:19:17.662Z,16.93
2019-03-19T22:21:45.391Z,19.70
2019-03-19T22:24:12.904Z,16.70
2019-03-19T22:26:40.343Z,17.93
2019-03-19T22:29:08.163Z,22.40
2019-03-19T22:31:35.628Z,15.60
2019-03-19T22:34:13.505Z,21.60
2019-03-19T22:36:32.765Z,15.37
2019-03-19T22:39:00.227Z,17.90
2019-03-19T22:41:28.124Z,21.27
2019-03-19T22:43:55.570Z,22.10
2019-03-19T22:46:23.010Z,20.67
2019-03-19T22:48:50.810Z,21.13
2019-03-19T22:51:18.596Z,18.50
2019-03-19T22:53:46.049Z,21.50
2019-03-19T22:56:13.792Z,13.23
2019-03-19T22:58:41.251Z,22.57
2019-03-19T23:01:09.139Z,17.37
2019-03-19T23:03:36.810Z,16.47
2019-03-19T23:06:04.343Z,18.43
2019-03-19T23:08:31.805Z,19.43
2019-03-19T23:10:59.285Z,16.00
2019-03-19T23:13:26.782Z,22.80
2019-03-19T23:15:54.545Z,22.47
2019-03-19T23:18:22.284Z,24.30
2019-03-19T23:20:49.794Z,17.93
2019-03-19T23:23:17.291Z,15.23
2019-03-19T23:25:44.858Z,16.60
2019-03-19T23:28:12.313Z,14.93
2019-03-19T23:30:39.778Z,18.47
2019-03-19T23:33:07.304Z,23.10
2019-03-19T23:35:35.801Z,12.97
2019-03-19T23:38:03.355Z,18.37
2019-03-19T23:40:30.844Z,24.83
2019-03-19T23:42:58.410Z,20.20
2019-03-19T23:45:26.160Z,18.10
2019-03-19T23:47:53.694Z,17.47
2019-03-19T23:50:21.152Z,20.33
2019-03-19T23:52:48.659Z,21.10
2019-03-19T23:55:16.314Z,19.53
2019-03-19T23:57:43.859Z,16.40
